createdAt,value
2022-11-12T00:01:43.008Z,17.55
2022-11-12T00:04:28.800Z,16.55
2022-11-12T00:07:14.510Z,16.67
2022-11-12T00:10:00.266Z,16.33
2022-11-12T00:12:46.150Z,16.65
2022-11-12T00:15:32.075Z,16.45
2022-11-12T00:18:18.245Z,16.35
2022-11-12T00:21:04.120Z,16.77
2022-11-12T00:23:49.871Z,17.60
2022-11-12T00:26:35.853Z,17.13
2022-11-12T00:29:21.588Z,16.77
2022-11-12T00:32:08.018Z,16.45
2022-11-12T00:34:54.262Z,17.17
2022-11-12T00:37:40.100Z,17.45
2022-11-12T00:40:26.770Z,16.13
2022-11-12T00:43:12.664Z,17.10
2022-11-12T00:45:58.377Z,16.48
2022-11-12T00:48:44.246Z,17.52
2022-11-12T00:51:30.318Z,17.48
2022-11-12T00:54:16.428Z,16.13
2022-11-12T00:57:02.231Z,17.02
2022-11-12T00:59:48.348Z,15.75
2022-11-12T01:02:42.323Z,16.58
2022-11-12T01:05:29.982Z,16.83
2022-11-12T01:08:16.039Z,17.92
2022-11-12T01:11:10.220Z,17.50
2022-11-12T01:14:05.071Z,19.50
2022-11-12T01:16:51.059Z,19.73
2022-11-12T01:19:36.875Z,21.15
2022-11-12T01:22:22.681Z,18.85
2022-11-12T01:25:08.865Z,18.77
2022-11-12T01:27:55.041Z,19.77
2022-11-12T01:30:40.838Z,19.90
2022-11-12T01:33:26.652Z,18.50
2022-11-12T01:36:13.605Z,18.05
2022-11-12T01:38:59.406Z,18.35
2022-11-12T01:41:45.372Z,18.17
2022-11-12T01:44:32.745Z,18.77
2022-11-12T01:47:25.488Z,18.52
2022-11-12T01:50:26.227Z,18.73
2022-11-12T01:53:14.139Z,17.35
2022-11-12T01:56:01.427Z,18.42
2022-11-12T01:58:49.421Z,18.33
2022-11-12T02:01:37.230Z,18.00
2022-11-12T02:04:24.009Z,16.75
2022-11-12T02:07:11.045Z,17.55
2022-11-12T02:09:58.214Z,15.85
2022-11-12T02:13:03.665Z,16.48
2022-11-12T02:15:49.748Z,17.15
2022-11-12T02:18:35.899Z,17.98
2022-11-12T02:21:23.585Z,18.25
2022-11-12T02:24:12.371Z,17.75
2022-11-12T02:26:59.128Z,17.95
2022-11-12T02:29:48.064Z,15.48
2022-11-12T02:32:33.935Z,16.95
2022-11-12T02:35:19.778Z,18.98
2022-11-12T02:38:06.866Z,18.15
2022-11-12T02:40:53.309Z,17.80
2022-11-12T02:43:39.888Z,18.13
2022-11-12T02:46:25.802Z,19.25
2022-11-12T02:49:11.695Z,19.88
2022-11-12T02:51:57.634Z,19.85
2022-11-12T02:54:43.311Z,19.75
2022-11-12T02:57:30.564Z,19.45
2022-11-12T03:00:16.929Z,22.35
2022-11-12T03:03:02.878Z,22.13
2022-11-12T03:06:00.820Z,21.13
2022-11-12T03:08:46.967Z,21.65
2022-11-12T03:11:32.840Z,21.38
2022-11-12T03:14:18.772Z,22.27
2022-11-12T03:17:04.978Z,22.83
2022-11-12T03:19:50.649Z,22.77
2022-11-12T03:22:37.441Z,22.65
2022-11-12T03:25:24.273Z,22.67
2022-11-12T03:28:12.245Z,23.33
2022-11-12T03:31:00.085Z,21.40
2022-11-12T03:33:46.097Z,21.30
2022-11-12T03:36:32.134Z,22.08
2022-11-12T03:39:18.440Z,22.67
2022-11-12T03:42:04.621Z,22.92
2022-11-12T03:44:50.690Z,21.20
2022-11-12T03:47:36.807Z,22.63
2022-11-12T03:50:26.511Z,21.70
2022-11-12T03:53:12.529Z,21.52
2022-11-12T03:55:58.697Z,19.85
2022-11-12T03:58:44.581Z,19.38
2022-11-12T04:01:30.603Z,21.48
2022-11-12T04:04:16.238Z,20.00
2022-11-12T04:07:20.304Z,19.20
2022-11-12T04:10:06.365Z,18.95
2022-11-12T04:13:10.743Z,15.45
2022-11-12T04:16:21.025Z,15.15
2022-11-12T04:22:12.267Z,17.70
2022-11-12T04:25:16.362Z,16.42
2022-11-12T04:28:02.202Z,16.15
2022-11-12T04:30:48.143Z,16.65
2022-11-12T04:33:34.308Z,16.45
2022-11-12T04:36:20.539Z,14.55
2022-11-12T04:39:06.542Z,15.77
2022-11-12T04:42:11.260Z,14.73
2022-11-12T04:44:57.615Z,14.95
2022-11-12T04:47:46.935Z,15.02
2022-11-12T04:50:32.773Z,14.85
2022-11-12T04:53:19.101Z,15.57
2022-11-12T04:56:05.123Z,14.57
2022-11-12T04:58:51.279Z,14.23
2022-11-12T05:01:37.247Z,14.60
2022-11-12T05:04:23.161Z,15.07
2022-11-12T05:07:09.560Z,14.68
2022-11-12T05:09:55.371Z,14.02
2022-11-12T05:12:41.058Z,15.15
2022-11-12T05:15:26.741Z,15.55
2022-11-12T05:18:12.869Z,14.35
2022-11-12T05:21:18.799Z,15.65
2022-11-12T05:24:04.887Z,14.75
2022-11-12T05:26:50.964Z,15.90
2022-11-12T05:29:37.319Z,15.10
2022-11-12T05:32:23.114Z,16.73
2022-11-12T05:35:09.118Z,14.38
2022-11-12T05:37:55.034Z,17.77
2022-11-12T05:40:45.492Z,17.02
2022-11-12T05:43:31.239Z,17.55
2022-11-12T05:46:18.385Z,18.05
2022-11-12T05:49:04.466Z,18.00
2022-11-12T05:51:51.774Z,17.58
2022-11-12T05:54:37.365Z,15.38
2022-11-12T05:57:23.364Z,18.23
2022-11-12T06:00:09.948Z,18.33
2022-11-12T06:02:58.941Z,19.55
2022-11-12T06:05:44.966Z,19.23
2022-11-12T06:08:30.737Z,20.30
2022-11-12T06:11:16.509Z,19.90
2022-11-12T06:14:04.042Z,19.95
2022-11-12T06:16:49.904Z,18.08
2022-11-12T06:19:35.800Z,19.02
2022-11-12T06:22:21.761Z,19.90
2022-11-12T06:25:07.977Z,18.17
2022-11-12T06:27:53.810Z,20.05
2022-11-12T06:30:39.551Z,19.63
2022-11-12T06:33:25.411Z,18.02
2022-11-12T06:36:13.270Z,19.35
2022-11-12T06:38:59.426Z,17.40
2022-11-12T06:41:45.422Z,17.88
2022-11-12T06:44:31.290Z,19.40
2022-11-12T06:47:17.624Z,18.88
2022-11-12T06:50:03.702Z,17.77
2022-11-12T06:52:49.601Z,18.70
2022-11-12T06:55:35.725Z,17.65
2022-11-12T06:58:21.743Z,18.23
2022-11-12T07:01:12.070Z,18.48
2022-11-12T07:03:58.209Z,19.38
2022-11-12T07:06:44.462Z,17.90
2022-11-12T07:09:30.692Z,17.30
2022-11-12T07:12:16.864Z,20.52
2022-11-12T07:15:02.874Z,19.85
2022-11-12T07:17:48.829Z,18.88
2022-11-12T07:20:35.394Z,18.98
2022-11-12T07:23:21.088Z,19.83
2022-11-12T07:26:22.014Z,20.08
2022-11-12T07:29:07.881Z,19.48
2022-11-12T07:31:53.983Z,20.33
2022-11-12T07:34:39.829Z,21.02
2022-11-12T07:37:25.669Z,19.67
2022-11-12T07:40:12.064Z,18.85
2022-11-12T07:42:59.510Z,19.90
2022-11-12T07:45:45.450Z,19.35
2022-11-12T07:48:32.479Z,19.23
2022-11-12T07:51:26.283Z,19.05
2022-11-12T07:54:12.164Z,20.27
2022-11-12T07:56:58.009Z,20.55
2022-11-12T07:59:46.293Z,21.13
2022-11-12T08:02:32.610Z,18.90
2022-11-12T08:05:21.362Z,20.58
2022-11-12T08:08:07.563Z,19.52
2022-11-12T08:10:57.396Z,19.80
2022-11-12T08:13:43.087Z,18.80
2022-11-12T08:16:28.858Z,19.25
2022-11-12T08:19:14.850Z,20.20
2022-11-12T08:22:00.831Z,20.92
2022-11-12T08:24:46.910Z,20.02
2022-11-12T08:27:32.598Z,19.40
2022-11-12T08:30:18.448Z,18.30
2022-11-12T08:33:06.327Z,17.98
2022-11-12T08:35:52.370Z,18.70
2022-11-12T08:38:39.350Z,18.40
2022-11-12T08:41:25.401Z,19.67
2022-11-12T08:44:11.239Z,18.77
2022-11-12T08:46:57.151Z,19.13
2022-11-12T08:49:47.802Z,18.23
2022-11-12T08:52:34.396Z,19.05
2022-11-12T08:55:20.288Z,16.75
2022-11-12T08:58:06.689Z,17.33
2022-11-12T09:00:53.490Z,17.20
2022-11-12T09:03:39.170Z,17.80
2022-11-12T09:06:25.134Z,17.83
2022-11-12T09:09:12.677Z,17.58
2022-11-12T09:11:58.739Z,17.00
2022-11-12T09:14:44.628Z,16.65
2022-11-12T09:17:31.325Z,16.73
2022-11-12T09:20:17.412Z,16.13
2022-11-12T09:23:07.635Z,15.63
2022-11-12T09:25:56.121Z,17.33
2022-11-12T09:28:42.031Z,16.70
2022-11-12T09:31:28.371Z,16.17
2022-11-12T09:34:14.633Z,16.63
2022-11-12T09:37:00.734Z,17.20
2022-11-12T09:39:46.729Z,17.23
2022-11-12T09:42:36.583Z,15.50
2022-11-12T09:45:32.967Z,16.38
2022-11-12T09:48:27.699Z,23.08
2022-11-12T09:51:19.029Z,18.20
2022-11-12T09:54:20.098Z,16.13
2022-11-12T09:57:10.260Z,16.65
2022-11-12T09:59:57.311Z,16.38
2022-11-12T10:03:04.911Z,15.68
2022-11-12T10:06:10.646Z,16.02
2022-11-12T10:09:12.476Z,15.13
2022-11-12T10:12:33.310Z,15.80
2022-11-12T10:15:57.242Z,16.13
2022-11-12T10:19:19.497Z,16.48
2022-11-12T10:22:13.030Z,16.20
2022-11-12T10:25:10.020Z,18.08
2022-11-12T10:27:56.726Z,18.35
2022-11-12T10:30:43.917Z,19.27
2022-11-12T10:33:31.530Z,22.65
2022-11-12T10:36:36.305Z,17.20
2022-11-12T10:39:37.591Z,17.33
2022-11-12T10:42:24.150Z,17.20
2022-11-12T10:45:28.724Z,17.05
2022-11-12T10:48:40.842Z,21.90
2022-11-12T10:51:36.061Z,18.70
2022-11-12T10:54:27.920Z,20.40
2022-11-12T10:57:25.650Z,17.23
2022-11-12T11:00:14.979Z,16.95
2022-11-12T11:03:05.258Z,18.75
2022-11-12T11:05:55.902Z,17.08
2022-11-12T11:08:47.335Z,17.33
2022-11-12T11:11:32.982Z,17.00
2022-11-12T11:14:28.752Z,17.75
2022-11-12T11:17:18.824Z,17.92
2022-11-12T11:20:15.199Z,16.88
2022-11-12T11:23:11.224Z,16.27
2022-11-12T11:26:07.467Z,16.60
2022-11-12T11:29:14.281Z,17.35
2022-11-12T11:32:09.168Z,17.08
2022-11-12T11:35:18.574Z,19.33
2022-11-12T11:38:22.604Z,20.35
2022-11-12T11:41:36.197Z,16.83
2022-11-12T11:44:51.209Z,17.08
2022-11-12T11:48:05.745Z,16.42
2022-11-12T11:51:24.794Z,17.33
2022-11-12T11:57:30.469Z,16.42
2022-11-12T12:00:22.403Z,16.38
2022-11-12T12:03:40.676Z,16.05
2022-11-12T12:06:37.256Z,15.23
2022-11-12T12:09:35.494Z,16.50
2022-11-12T12:12:31.155Z,16.15
2022-11-12T12:15:47.883Z,17.45
2022-11-12T12:18:52.674Z,20.45
2022-11-12T12:21:43.113Z,27.65
2022-11-12T12:24:43.694Z,19.85
2022-11-12T12:27:37.643Z,24.08
2022-11-12T12:30:25.924Z,17.92
2022-11-12T12:33:38.224Z,19.00
2022-11-12T12:36:35.142Z,19.48
2022-11-12T12:39:48.242Z,15.88
2022-11-12T12:43:20.723Z,15.93
2022-11-12T12:46:07.914Z,16.42
2022-11-12T12:48:55.767Z,17.67
2022-11-12T12:51:41.953Z,16.67
2022-11-12T12:54:39.798Z,16.95
2022-11-12T12:57:40.190Z,16.50
2022-11-12T13:03:43.105Z,18.75
2022-11-12T13:09:17.120Z,15.73
2022-11-12T13:12:05.946Z,17.02
2022-11-12T13:14:54.620Z,17.48
2022-11-12T13:17:46.322Z,17.45
2022-11-12T13:20:34.884Z,17.77
2022-11-12T13:24:07.577Z,17.10
2022-11-12T13:27:00.687Z,22.73
2022-11-12T13:29:49.220Z,17.90
2022-11-12T13:32:50.136Z,17.55
2022-11-12T13:35:38.754Z,16.95
2022-11-12T13:38:24.982Z,17.95
2022-11-12T13:41:41.837Z,19.52
2022-11-12T13:44:29.328Z,18.70
2022-11-12T13:47:21.869Z,15.57
2022-11-12T13:50:11.133Z,18.48
2022-11-12T13:52:57.364Z,19.58
2022-11-12T13:55:51.688Z,20.50
2022-11-12T13:58:40.136Z,19.33
2022-11-12T14:01:26.390Z,18.60
2022-11-12T14:04:18.848Z,17.10
2022-11-12T14:07:36.525Z,16.73
2022-11-12T14:10:40.057Z,16.48
2022-11-12T14:13:43.433Z,19.98
2022-11-12T14:16:41.252Z,20.15
2022-11-12T14:19:27.002Z,17.40
2022-11-12T14:22:17.002Z,16.25
2022-11-12T14:25:04.128Z,16.38
2022-11-12T14:27:52.658Z,16.70
2022-11-12T14:30:44.964Z,16.00
2022-11-12T14:33:32.693Z,17.17
2022-11-12T14:36:19.495Z,18.60
2022-11-12T14:39:07.075Z,16.15
2022-11-12T14:41:54.008Z,17.90
2022-11-12T14:44:40.576Z,17.90
2022-11-12T14:47:28.087Z,17.90
2022-11-12T14:50:26.627Z,16.50
2022-11-12T14:53:41.657Z,15.90
2022-11-12T14:56:45.337Z,15.77
2022-11-12T14:59:32.477Z,15.25
2022-11-12T15:02:37.620Z,15.52
2022-11-12T15:05:33.446Z,15.63
2022-11-12T15:08:30.346Z,16.52
2022-11-12T15:11:31.797Z,15.55
2022-11-12T15:14:24.938Z,15.73
2022-11-12T15:17:33.096Z,15.00
2022-11-12T15:20:20.377Z,16.55
2022-11-12T15:23:07.126Z,15.63
2022-11-12T15:26:00.577Z,15.93
2022-11-12T15:29:22.782Z,14.85
2022-11-12T15:32:14.056Z,16.17
2022-11-12T15:34:59.929Z,16.60
2022-11-12T15:37:46.116Z,14.15
2022-11-12T15:40:33.602Z,16.63
2022-11-12T15:43:24.202Z,24.70
2022-11-12T15:46:17.620Z,17.75
2022-11-12T15:49:03.687Z,16.05
2022-11-12T15:51:49.955Z,16.15
2022-11-12T15:54:40.697Z,16.08
2022-11-12T15:57:32.088Z,15.05
2022-11-12T16:00:18.482Z,15.75
2022-11-12T16:03:17.996Z,15.40
2022-11-12T16:06:08.642Z,15.60
2022-11-12T16:08:55.044Z,16.83
2022-11-12T16:11:41.286Z,16.00
2022-11-12T16:14:28.334Z,16.25
2022-11-12T16:17:16.349Z,16.45
2022-11-12T16:20:02.280Z,16.05
2022-11-12T16:22:49.156Z,16.83
2022-11-12T16:25:37.438Z,17.30
2022-11-12T16:28:23.133Z,16.95
2022-11-12T16:31:09.090Z,17.52
2022-11-12T16:33:54.815Z,16.58
2022-11-12T16:36:40.756Z,16.55
2022-11-12T16:39:27.109Z,17.13
2022-11-12T16:42:13.412Z,17.55
2022-11-12T16:44:59.480Z,16.90
2022-11-12T16:47:56.556Z,16.83
2022-11-12T16:50:42.398Z,16.60
2022-11-12T16:53:28.738Z,17.60
2022-11-12T16:56:18.438Z,17.58
2022-11-12T16:59:04.923Z,16.90
2022-11-12T17:01:50.880Z,17.83
2022-11-12T17:04:36.891Z,17.35
2022-11-12T17:07:23.213Z,18.00
2022-11-12T17:10:09.666Z,19.08
2022-11-12T17:12:55.749Z,19.33
2022-11-12T17:15:41.597Z,19.92
2022-11-12T17:18:27.417Z,18.27
2022-11-12T17:21:16.686Z,19.55
2022-11-12T17:24:02.601Z,17.92
2022-11-12T17:26:48.497Z,17.88
2022-11-12T17:29:34.117Z,18.80
2022-11-12T17:32:20.313Z,19.75
2022-11-12T17:35:07.348Z,20.05
2022-11-12T17:37:53.616Z,19.83
2022-11-12T17:40:39.840Z,19.73
2022-11-12T17:43:26.994Z,20.15
2022-11-12T17:46:15.356Z,19.65
2022-11-12T17:49:01.866Z,20.42
2022-11-12T17:51:47.967Z,19.73
2022-11-12T17:54:34.916Z,18.67
2022-11-12T17:57:21.137Z,19.10
2022-11-12T18:00:07.812Z,18.40
2022-11-12T18:02:56.265Z,19.98
2022-11-12T18:05:42.367Z,18.63
2022-11-12T18:08:28.524Z,18.73
2022-11-12T18:11:15.627Z,20.00
2022-11-12T18:14:07.623Z,19.25
2022-11-12T18:16:53.730Z,21.63
2022-11-12T18:19:39.741Z,18.77
2022-11-12T18:22:26.414Z,18.27
2022-11-12T18:25:13.268Z,20.33
2022-11-12T18:27:59.415Z,19.20
2022-11-12T18:30:45.216Z,22.90
2022-11-12T18:33:31.945Z,22.95
2022-11-12T18:36:24.619Z,21.35
2022-11-12T18:39:10.654Z,21.88
2022-11-12T18:41:56.453Z,21.20
2022-11-12T18:44:42.410Z,22.35
2022-11-12T18:47:30.600Z,23.92
2022-11-12T18:50:16.901Z,23.70
2022-11-12T18:53:02.726Z,22.85
2022-11-12T18:55:48.736Z,24.27
2022-11-12T18:58:35.581Z,23.58
2022-11-12T19:01:23.535Z,22.92
2022-11-12T19:04:11.626Z,24.42
2022-11-12T19:06:57.406Z,24.15
2022-11-12T19:09:43.567Z,24.33
2022-11-12T19:12:29.410Z,24.60
2022-11-12T19:15:15.604Z,24.58
2022-11-12T19:18:01.771Z,26.05
2022-11-12T19:20:48.411Z,26.77
2022-11-12T19:23:34.328Z,25.10
2022-11-12T19:26:21.373Z,25.48
2022-11-12T19:29:07.772Z,29.77
2022-11-12T19:31:54.738Z,26.33
2022-11-12T19:34:40.860Z,25.05
2022-11-12T19:37:33.492Z,24.63
2022-11-12T19:40:20.327Z,27.23
2022-11-12T19:43:06.311Z,26.23
2022-11-12T19:45:52.377Z,27.00
2022-11-12T19:48:38.908Z,28.50
2022-11-12T19:51:25.078Z,24.38
2022-11-12T19:54:11.471Z,25.77
2022-11-12T19:56:57.361Z,24.92
2022-11-12T19:59:43.463Z,22.90
2022-11-12T20:02:29.483Z,25.05
2022-11-12T20:05:15.616Z,24.35
2022-11-12T20:08:01.502Z,23.58
2022-11-12T20:10:47.584Z,23.63
2022-11-12T20:13:33.904Z,24.55
2022-11-12T20:16:25.197Z,26.30
2022-11-12T20:19:11.786Z,26.08
2022-11-12T20:21:57.736Z,26.10
2022-11-12T20:24:43.758Z,23.88
2022-11-12T20:27:29.672Z,26.20
2022-11-12T20:30:15.813Z,27.52
2022-11-12T20:33:01.750Z,27.90
2022-11-12T20:35:47.692Z,26.60
2022-11-12T20:38:36.610Z,29.30
2022-11-12T20:41:25.028Z,27.00
2022-11-12T20:44:10.671Z,26.73
2022-11-12T20:46:56.658Z,27.02
2022-11-12T20:49:42.471Z,28.58
2022-11-12T20:52:28.198Z,26.25
2022-11-12T20:55:14.278Z,25.60
2022-11-12T20:58:00.727Z,25.33
2022-11-12T21:00:46.437Z,28.25
2022-11-12T21:03:34.102Z,26.13
2022-11-12T21:06:23.034Z,26.08
2022-11-12T21:09:08.943Z,29.23
2022-11-12T21:11:54.954Z,29.67
2022-11-12T21:14:43.768Z,26.50
2022-11-12T21:17:33.728Z,27.15
2022-11-12T21:20:19.700Z,26.88
2022-11-12T21:23:05.573Z,28.92
2022-11-12T21:25:51.659Z,28.83
2022-11-12T21:28:38.651Z,25.30
2022-11-12T21:31:29.881Z,29.30
2022-11-12T21:34:15.967Z,28.17
2022-11-12T21:37:01.993Z,26.20
2022-11-12T21:39:49.517Z,25.70
2022-11-12T21:42:35.692Z,26.20
2022-11-12T21:45:21.412Z,26.25
2022-11-12T21:48:07.381Z,28.25
2022-11-12T21:50:53.260Z,29.42
2022-11-12T21:53:39.703Z,28.15
2022-11-12T21:56:26.534Z,27.98
2022-11-12T21:59:12.399Z,29.35
2022-11-12T22:01:58.284Z,28.40
2022-11-12T22:04:44.133Z,31.08
2022-11-12T22:07:29.725Z,30.60
2022-11-12T22:10:15.746Z,28.67
2022-11-12T22:16:12.238Z,28.55
2022-11-12T22:21:44.696Z,29.95
2022-11-12T22:24:30.528Z,28.23
2022-11-12T22:27:16.587Z,29.88
2022-11-12T22:30:02.533Z,31.75
2022-11-12T22:32:48.638Z,31.65
2022-11-12T22:35:35.933Z,30.70
2022-11-12T22:38:21.759Z,28.67
2022-11-12T22:41:12.768Z,29.40
2022-11-12T22:44:01.525Z,32.47
2022-11-12T22:46:47.340Z,34.70
2022-11-12T22:49:33.479Z,36.50
2022-11-12T22:52:19.607Z,29.17
2022-11-12T22:55:05.961Z,31.67
2022-11-12T22:57:51.665Z,29.80
2022-11-12T23:00:37.617Z,28.42
2022-11-12T23:03:23.808Z,32.10
2022-11-12T23:06:10.374Z,30.00
2022-11-12T23:09:01.590Z,29.95
2022-11-12T23:11:47.497Z,27.60
2022-11-12T23:14:33.722Z,31.52
2022-11-12T23:17:20.636Z,29.77
2022-11-12T23:20:07.482Z,31.23
2022-11-12T23:22:53.604Z,34.28
2022-11-12T23:25:39.398Z,32.95
2022-11-12T23:28:25.531Z,37.72
2022-11-12T23:31:17.686Z,34.42
2022-11-12T23:34:03.531Z,37.92
2022-11-12T23:36:49.573Z,36.75
2022-11-12T23:39:35.305Z,45.95
2022-11-12T23:42:22.248Z,41.83
2022-11-12T23:45:08.863Z,42.67
2022-11-12T23:47:56.271Z,31.52
2022-11-12T23:50:42.312Z,37.10
2022-11-12T23:53:27.990Z,35.78
2022-11-12T23:56:15.868Z,32.10
2022-11-12T23:59:01.878Z,41.53
